sensor_id;sensor_type;location;lat;lon;timestamp;P1;durP1;ratioP1;P2;durP2;ratioP2
579;SDS011;276;48.392;9.950;2023-09-07T00:01:29;3.00;;;2.80;;
579;SDS011;276;48.392;9.950;2023-09-07T00:03:57;3.93;;;3.60;;
579;SDS011;276;48.392;9.950;2023-09-07T00:06:23;3.30;;;3.10;;
579;SDS011;276;48.392;9.950;2023-09-07T00:08:51;3.33;;;3.13;;
579;SDS011;276;48.392;9.950;2023-09-07T00:11:17;3.10;;;2.90;;
579;SDS011;276;48.392;9.950;2023-09-07T00:13:43;4.20;;;3.27;;
579;SDS011;276;48.392;9.950;2023-09-07T00:16:11;3.63;;;3.40;;
579;SDS011;276;48.392;9.950;2023-09-07T00:18:39;3.80;;;3.50;;
579;SDS011;276;48.392;9.950;2023-09-07T00:21:05;3.00;;;2.80;;
579;SDS011;276;48.392;9.950;2023-09-07T00:23:30;3.20;;;3.00;;
579;SDS011;276;48.392;9.950;2023-09-07T00:25:56;3.50;;;3.20;;
579;SDS011;276;48.392;9.950;2023-09-07T00:28:24;4.03;;;3.63;;
579;SDS011;276;48.392;9.950;2023-09-07T00:30:50;3.57;;;3.27;;
579;SDS011;276;48.392;9.950;2023-09-07T00:33:18;5.90;;;3.30;;
579;SDS011;276;48.392;9.950;2023-09-07T00:35:44;3.17;;;2.97;;
579;SDS011;276;48.392;9.950;2023-09-07T00:38:09;3.70;;;3.40;;
579;SDS011;276;48.392;9.950;2023-09-07T00:40:36;4.47;;;3.73;;
579;SDS011;276;48.392;9.950;2023-09-07T00:43:02;3.67;;;3.37;;
579;SDS011;276;48.392;9.950;2023-09-07T00:45:32;6.97;;;3.83;;
579;SDS011;276;48.392;9.950;2023-09-07T00:48:00;5.20;;;4.70;;
579;SDS011;276;48.392;9.950;2023-09-07T00:50:28;3.63;;;3.33;;
579;SDS011;276;48.392;9.950;2023-09-07T00:52:54;4.27;;;3.97;;
579;SDS011;276;48.392;9.950;2023-09-07T00:55:20;4.20;;;3.80;;
579;SDS011;276;48.392;9.950;2023-09-07T00:57:47;4.73;;;4.20;;
579;SDS011;276;48.392;9.950;2023-09-07T01:00:13;4.13;;;3.73;;
579;SDS011;276;48.392;9.950;2023-09-07T01:02:39;3.67;;;3.47;;
579;SDS011;276;48.392;9.950;2023-09-07T01:05:05;4.83;;;4.00;;
579;SDS011;276;48.392;9.950;2023-09-07T01:07:40;4.43;;;4.13;;
579;SDS011;276;48.392;9.950;2023-09-07T01:10:11;4.63;;;3.63;;
579;SDS011;276;48.392;9.950;2023-09-07T01:12:39;4.33;;;3.40;;
579;SDS011;276;48.392;9.950;2023-09-07T01:15:07;4.80;;;4.40;;
579;SDS011;276;48.392;9.950;2023-09-07T01:17:35;3.90;;;3.70;;
579;SDS011;276;48.392;9.950;2023-09-07T01:20:04;3.50;;;3.30;;
579;SDS011;276;48.392;9.950;2023-09-07T01:22:35;3.93;;;3.47;;
579;SDS011;276;48.392;9.950;2023-09-07T01:25:04;4.50;;;4.10;;
579;SDS011;276;48.392;9.950;2023-09-07T01:27:31;4.30;;;4.00;;
579;SDS011;276;48.392;9.950;2023-09-07T01:30:00;4.87;;;4.47;;
579;SDS011;276;48.392;9.950;2023-09-07T01:32:27;4.63;;;4.33;;
579;SDS011;276;48.392;9.950;2023-09-07T01:34:54;4.63;;;4.33;;
579;SDS011;276;48.392;9.950;2023-09-07T01:37:21;8.13;;;4.10;;
579;SDS011;276;48.392;9.950;2023-09-07T01:39:47;4.43;;;4.13;;
579;SDS011;276;48.392;9.950;2023-09-07T01:42:15;5.33;;;4.90;;
579;SDS011;276;48.392;9.950;2023-09-07T01:44:41;4.90;;;4.60;;
579;SDS011;276;48.392;9.950;2023-09-07T01:47:08;4.60;;;4.20;;
579;SDS011;276;48.392;9.950;2023-09-07T01:49:38;4.33;;;3.93;;
579;SDS011;276;48.392;9.950;2023-09-07T01:52:04;5.53;;;5.13;;
579;SDS011;276;48.392;9.950;2023-09-07T01:54:30;4.93;;;4.53;;
579;SDS011;276;48.392;9.950;2023-09-07T01:56:55;5.33;;;4.30;;
579;SDS011;276;48.392;9.950;2023-09-07T01:59:23;5.80;;;4.03;;
579;SDS011;276;48.392;9.950;2023-09-07T02:01:49;5.10;;;4.70;;
579;SDS011;276;48.392;9.950;2023-09-07T02:04:17;5.10;;;4.70;;
579;SDS011;276;48.392;9.950;2023-09-07T02:06:42;5.20;;;4.80;;
579;SDS011;276;48.392;9.950;2023-09-07T02:09:10;5.83;;;5.30;;
579;SDS011;276;48.392;9.950;2023-09-07T02:11:36;4.33;;;4.00;;
579;SDS011;276;48.392;9.950;2023-09-07T02:14:04;4.20;;;3.90;;
579;SDS011;276;48.392;9.950;2023-09-07T02:16:33;6.53;;;4.60;;
579;SDS011;276;48.392;9.950;2023-09-07T02:19:02;4.60;;;4.20;;
579;SDS011;276;48.392;9.950;2023-09-07T02:21:29;5.40;;;4.90;;
579;SDS011;276;48.392;9.950;2023-09-07T02:23:54;5.10;;;4.70;;
579;SDS011;276;48.392;9.950;2023-09-07T02:26:20;4.83;;;4.43;;
579;SDS011;276;48.392;9.950;2023-09-07T02:28:46;6.13;;;5.63;;
579;SDS011;276;48.392;9.950;2023-09-07T02:31:11;4.63;;;4.33;;
579;SDS011;276;48.392;9.950;2023-09-07T02:33:37;5.27;;;4.87;;
579;SDS011;276;48.392;9.950;2023-09-07T02:36:05;5.67;;;5.07;;
579;SDS011;276;48.392;9.950;2023-09-07T02:38:30;5.93;;;4.97;;
579;SDS011;276;48.392;9.950;2023-09-07T02:40:57;4.87;;;4.47;;
579;SDS011;276;48.392;9.950;2023-09-07T02:43:23;9.73;;;5.80;;
579;SDS011;276;48.392;9.950;2023-09-07T02:45:49;6.40;;;4.87;;
579;SDS011;276;48.392;9.950;2023-09-07T02:48:17;5.90;;;5.40;;
579;SDS011;276;48.392;9.950;2023-09-07T02:50:45;4.60;;;4.30;;
579;SDS011;276;48.392;9.950;2023-09-07T02:53:17;5.07;;;4.73;;
579;SDS011;276;48.392;9.950;2023-09-07T02:55:42;5.00;;;4.60;;
579;SDS011;276;48.392;9.950;2023-09-07T02:58:10;4.67;;;4.37;;
579;SDS011;276;48.392;9.950;2023-09-07T03:00:40;5.60;;;5.17;;
579;SDS011;276;48.392;9.950;2023-09-07T03:03:09;4.90;;;4.50;;
579;SDS011;276;48.392;9.950;2023-09-07T03:05:39;5.03;;;4.50;;
579;SDS011;276;48.392;9.950;2023-09-07T03:08:05;5.43;;;5.07;;
579;SDS011;276;48.392;9.950;2023-09-07T03:10:32;5.37;;;4.97;;
579;SDS011;276;48.392;9.950;2023-09-07T03:12:57;4.90;;;4.50;;
579;SDS011;276;48.392;9.950;2023-09-07T03:15:23;7.73;;;5.67;;
579;SDS011;276;48.392;9.950;2023-09-07T03:17:51;6.10;;;5.17;;
579;SDS011;276;48.392;9.950;2023-09-07T03:20:17;5.93;;;5.43;;
579;SDS011;276;48.392;9.950;2023-09-07T03:22:45;5.20;;;4.80;;
579;SDS011;276;48.392;9.950;2023-09-07T03:25:11;5.70;;;5.17;;
579;SDS011;276;48.392;9.950;2023-09-07T03:27:38;5.30;;;5.00;;
579;SDS011;276;48.392;9.950;2023-09-07T03:30:06;6.53;;;5.60;;
579;SDS011;276;48.392;9.950;2023-09-07T03:32:33;6.20;;;5.70;;
579;SDS011;276;48.392;9.950;2023-09-07T03:34:59;5.77;;;5.37;;
579;SDS011;276;48.392;9.950;2023-09-07T03:37:26;6.17;;;5.67;;
579;SDS011;276;48.392;9.950;2023-09-07T03:39:52;6.37;;;5.87;;
579;SDS011;276;48.392;9.950;2023-09-07T03:42:18;4.90;;;4.50;;
579;SDS011;276;48.392;9.950;2023-09-07T03:44:48;5.70;;;5.17;;
579;SDS011;276;48.392;9.950;2023-09-07T03:47:14;6.10;;;5.47;;
579;SDS011;276;48.392;9.950;2023-09-07T03:49:40;4.73;;;4.40;;
579;SDS011;276;48.392;9.950;2023-09-07T03:52:06;6.63;;;6.13;;
579;SDS011;276;48.392;9.950;2023-09-07T03:54:34;6.30;;;5.80;;
579;SDS011;276;48.392;9.950;2023-09-07T03:57:04;6.13;;;5.63;;
579;SDS011;276;48.392;9.950;2023-09-07T03:59:32;5.27;;;4.87;;
579;SDS011;276;48.392;9.950;2023-09-07T04:01:58;5.80;;;5.20;;
579;SDS011;276;48.392;9.950;2023-09-07T04:04:24;5.87;;;5.47;;
579;SDS011;276;48.392;9.950;2023-09-07T04:06:52;6.10;;;5.63;;
579;SDS011;276;48.392;9.950;2023-09-07T04:09:18;7.17;;;6.57;;
579;SDS011;276;48.392;9.950;2023-09-07T04:11:43;5.90;;;5.40;;
579;SDS011;276;48.392;9.950;2023-09-07T04:14:09;6.47;;;5.87;;
579;SDS011;276;48.392;9.950;2023-09-07T04:16:34;5.97;;;5.57;;
579;SDS011;276;48.392;9.950;2023-09-07T04:19:03;7.00;;;6.40;;
579;SDS011;276;48.392;9.950;2023-09-07T04:21:30;6.50;;;5.90;;
579;SDS011;276;48.392;9.950;2023-09-07T04:23:56;6.63;;;6.13;;
579;SDS011;276;48.392;9.950;2023-09-07T04:26:21;6.23;;;5.73;;
579;SDS011;276;48.392;9.950;2023-09-07T04:28:47;6.30;;;5.80;;
579;SDS011;276;48.392;9.950;2023-09-07T04:31:15;6.17;;;5.67;;
579;SDS011;276;48.392;9.950;2023-09-07T04:33:40;6.07;;;5.57;;
579;SDS011;276;48.392;9.950;2023-09-07T04:36:15;7.30;;;6.70;;
579;SDS011;276;48.392;9.950;2023-09-07T04:38:43;6.70;;;6.10;;
579;SDS011;276;48.392;9.950;2023-09-07T04:41:09;6.90;;;6.30;;
579;SDS011;276;48.392;9.950;2023-09-07T04:43:36;7.20;;;6.50;;
579;SDS011;276;48.392;9.950;2023-09-07T04:46:08;7.10;;;6.60;;
579;SDS011;276;48.392;9.950;2023-09-07T04:48:36;6.10;;;5.70;;
579;SDS011;276;48.392;9.950;2023-09-07T04:51:04;6.00;;;5.50;;
579;SDS011;276;48.392;9.950;2023-09-07T04:53:34;7.03;;;5.70;;
579;SDS011;276;48.392;9.950;2023-09-07T04:56:06;8.23;;;6.70;;
579;SDS011;276;48.392;9.950;2023-09-07T04:58:34;6.37;;;5.83;;
579;SDS011;276;48.392;9.950;2023-09-07T05:01:06;6.30;;;5.80;;
579;SDS011;276;48.392;9.950;2023-09-07T05:03:38;10.10;;;6.13;;
579;SDS011;276;48.392;9.950;2023-09-07T05:06:06;6.63;;;6.03;;
579;SDS011;276;48.392;9.950;2023-09-07T05:08:32;6.53;;;5.87;;
579;SDS011;276;48.392;9.950;2023-09-07T05:11:00;6.60;;;6.00;;
579;SDS011;276;48.392;9.950;2023-09-07T05:13:30;7.33;;;6.63;;
579;SDS011;276;48.392;9.950;2023-09-07T05:15:58;6.80;;;6.30;;
579;SDS011;276;48.392;9.950;2023-09-07T05:18:27;6.13;;;5.73;;
579;SDS011;276;48.392;9.950;2023-09-07T05:20:53;7.30;;;6.70;;
579;SDS011;276;48.392;9.950;2023-09-07T05:23:19;6.63;;;6.03;;
579;SDS011;276;48.392;9.950;2023-09-07T05:25:50;7.70;;;6.80;;
579;SDS011;276;48.392;9.950;2023-09-07T05:28:17;6.80;;;6.20;;
579;SDS011;276;48.392;9.950;2023-09-07T05:30:46;6.43;;;5.93;;
579;SDS011;276;48.392;9.950;2023-09-07T05:33:13;6.73;;;6.13;;
579;SDS011;276;48.392;9.950;2023-09-07T05:35:43;7.57;;;6.60;;
579;SDS011;276;48.392;9.950;2023-09-07T05:38:10;7.80;;;7.20;;
579;SDS011;276;48.392;9.950;2023-09-07T05:40:37;6.93;;;6.43;;
579;SDS011;276;48.392;9.950;2023-09-07T05:43:04;7.70;;;7.07;;
579;SDS011;276;48.392;9.950;2023-09-07T05:45:30;7.60;;;7.00;;
579;SDS011;276;48.392;9.950;2023-09-07T05:48:02;9.20;;;7.97;;
579;SDS011;276;48.392;9.950;2023-09-07T05:50:28;6.73;;;6.13;;
579;SDS011;276;48.392;9.950;2023-09-07T05:52:54;7.40;;;6.70;;
579;SDS011;276;48.392;9.950;2023-09-07T05:55:20;7.17;;;6.43;;
579;SDS011;276;48.392;9.950;2023-09-07T05:57:50;7.27;;;6.67;;
579;SDS011;276;48.392;9.950;2023-09-07T06:00:16;8.23;;;7.43;;
579;SDS011;276;48.392;9.950;2023-09-07T06:02:42;8.60;;;7.90;;
579;SDS011;276;48.392;9.950;2023-09-07T06:05:09;8.00;;;7.20;;
579;SDS011;276;48.392;9.950;2023-09-07T06:07:35;8.00;;;7.40;;
579;SDS011;276;48.392;9.950;2023-09-07T06:10:01;8.00;;;7.40;;
579;SDS011;276;48.392;9.950;2023-09-07T06:12:27;8.30;;;7.47;;
579;SDS011;276;48.392;9.950;2023-09-07T06:14:55;6.83;;;6.13;;
579;SDS011;276;48.392;9.950;2023-09-07T06:17:20;7.20;;;6.70;;
579;SDS011;276;48.392;9.950;2023-09-07T06:19:46;7.60;;;6.90;;
579;SDS011;276;48.392;9.950;2023-09-07T06:22:12;6.77;;;6.17;;
579;SDS011;276;48.392;9.950;2023-09-07T06:24:39;7.30;;;6.70;;
579;SDS011;276;48.392;9.950;2023-09-07T06:27:05;6.73;;;6.23;;
579;SDS011;276;48.392;9.950;2023-09-07T06:29:31;7.47;;;6.87;;
579;SDS011;276;48.392;9.950;2023-09-07T06:31:59;8.77;;;7.67;;
579;SDS011;276;48.392;9.950;2023-09-07T06:34:25;7.00;;;6.50;;
579;SDS011;276;48.392;9.950;2023-09-07T06:36:51;8.70;;;8.03;;
579;SDS011;276;48.392;9.950;2023-09-07T06:39:19;7.83;;;7.10;;
579;SDS011;276;48.392;9.950;2023-09-07T06:41:47;7.13;;;6.53;;
579;SDS011;276;48.392;9.950;2023-09-07T06:44:13;7.20;;;6.50;;
579;SDS011;276;48.392;9.950;2023-09-07T06:46:41;6.77;;;6.13;;
579;SDS011;276;48.392;9.950;2023-09-07T06:49:07;8.50;;;7.70;;
579;SDS011;276;48.392;9.950;2023-09-07T06:51:33;9.03;;;8.13;;
579;SDS011;276;48.392;9.950;2023-09-07T06:53:59;8.40;;;7.40;;
579;SDS011;276;48.392;9.950;2023-09-07T06:56:27;8.33;;;7.47;;
579;SDS011;276;48.392;9.950;2023-09-07T06:58:53;9.03;;;8.33;;
579;SDS011;276;48.392;9.950;2023-09-07T07:01:19;8.27;;;7.57;;
579;SDS011;276;48.392;9.950;2023-09-07T07:03:45;8.37;;;7.70;;
579;SDS011;276;48.392;9.950;2023-09-07T07:06:10;7.93;;;7.27;;
579;SDS011;276;48.392;9.950;2023-09-07T07:08:36;8.30;;;7.70;;
579;SDS011;276;48.392;9.950;2023-09-07T07:11:06;8.73;;;7.93;;
579;SDS011;276;48.392;9.950;2023-09-07T07:13:33;8.37;;;7.67;;
579;SDS011;276;48.392;9.950;2023-09-07T07:15:58;9.27;;;8.37;;
579;SDS011;276;48.392;9.950;2023-09-07T07:18:24;9.10;;;8.27;;
579;SDS011;276;48.392;9.950;2023-09-07T07:20:50;8.83;;;8.10;;
579;SDS011;276;48.392;9.950;2023-09-07T07:23:20;9.90;;;9.00;;
579;SDS011;276;48.392;9.950;2023-09-07T07:25:48;11.10;;;8.03;;
579;SDS011;276;48.392;9.950;2023-09-07T07:28:16;9.10;;;8.30;;
579;SDS011;276;48.392;9.950;2023-09-07T07:30:44;7.53;;;6.80;;
579;SDS011;276;48.392;9.950;2023-09-07T07:33:09;8.77;;;7.17;;
579;SDS011;276;48.392;9.950;2023-09-07T07:35:36;7.73;;;7.10;;
579;SDS011;276;48.392;9.950;2023-09-07T07:38:03;8.97;;;8.30;;
579;SDS011;276;48.392;9.950;2023-09-07T07:40:29;7.20;;;6.60;;
579;SDS011;276;48.392;9.950;2023-09-07T07:42:58;6.37;;;5.87;;
579;SDS011;276;48.392;9.950;2023-09-07T07:45:26;9.17;;;8.03;;
579;SDS011;276;48.392;9.950;2023-09-07T07:47:51;7.40;;;6.80;;
579;SDS011;276;48.392;9.950;2023-09-07T07:50:18;9.90;;;9.00;;
579;SDS011;276;48.392;9.950;2023-09-07T07:52:46;8.00;;;7.30;;
579;SDS011;276;48.392;9.950;2023-09-07T07:55:14;9.57;;;8.63;;
579;SDS011;276;48.392;9.950;2023-09-07T07:57:40;8.17;;;7.40;;
579;SDS011;276;48.392;9.950;2023-09-07T08:00:05;8.97;;;8.17;;
579;SDS011;276;48.392;9.950;2023-09-07T08:02:32;8.70;;;8.10;;
579;SDS011;276;48.392;9.950;2023-09-07T08:05:00;7.30;;;6.70;;
579;SDS011;276;48.392;9.950;2023-09-07T08:07:25;10.03;;;9.33;;
579;SDS011;276;48.392;9.950;2023-09-07T08:09:52;8.97;;;7.47;;
579;SDS011;276;48.392;9.950;2023-09-07T08:12:18;7.20;;;6.70;;
579;SDS011;276;48.392;9.950;2023-09-07T08:14:43;8.30;;;7.60;;
579;SDS011;276;48.392;9.950;2023-09-07T08:17:09;9.17;;;8.40;;
579;SDS011;276;48.392;9.950;2023-09-07T08:19:37;10.03;;;8.50;;
579;SDS011;276;48.392;9.950;2023-09-07T08:22:03;9.80;;;8.80;;
579;SDS011;276;48.392;9.950;2023-09-07T08:24:29;7.90;;;7.30;;
579;SDS011;276;48.392;9.950;2023-09-07T08:26:57;9.20;;;8.57;;
579;SDS011;276;48.392;9.950;2023-09-07T08:29:25;8.57;;;7.93;;
579;SDS011;276;48.392;9.950;2023-09-07T08:31:52;7.70;;;7.10;;
579;SDS011;276;48.392;9.950;2023-09-07T08:34:18;8.37;;;7.57;;
579;SDS011;276;48.392;9.950;2023-09-07T08:36:47;7.50;;;6.90;;
579;SDS011;276;48.392;9.950;2023-09-07T08:39:14;9.60;;;7.83;;
579;SDS011;276;48.392;9.950;2023-09-07T08:41:41;10.70;;;9.60;;
579;SDS011;276;48.392;9.950;2023-09-07T08:44:18;9.17;;;8.50;;
579;SDS011;276;48.392;9.950;2023-09-07T08:46:49;9.10;;;8.40;;
579;SDS011;276;48.392;9.950;2023-09-07T08:49:17;9.03;;;8.33;;
579;SDS011;276;48.392;9.950;2023-09-07T08:51:48;9.90;;;9.00;;
579;SDS011;276;48.392;9.950;2023-09-07T08:54:15;7.80;;;7.30;;
579;SDS011;276;48.392;9.950;2023-09-07T08:56:44;9.37;;;8.60;;
579;SDS011;276;48.392;9.950;2023-09-07T08:59:11;9.67;;;8.97;;
579;SDS011;276;48.392;9.950;2023-09-07T09:01:37;11.63;;;10.43;;
579;SDS011;276;48.392;9.950;2023-09-07T09:04:03;9.70;;;9.00;;
579;SDS011;276;48.392;9.950;2023-09-07T09:06:29;8.80;;;8.10;;
579;SDS011;276;48.392;9.950;2023-09-07T09:08:57;9.07;;;8.47;;
579;SDS011;276;48.392;9.950;2023-09-07T09:11:23;9.23;;;8.50;;
579;SDS011;276;48.392;9.950;2023-09-07T09:13:50;7.90;;;7.30;;
579;SDS011;276;48.392;9.950;2023-09-07T09:16:20;11.10;;;9.20;;
579;SDS011;276;48.392;9.950;2023-09-07T09:21:19;8.70;;;7.27;;
579;SDS011;276;48.392;9.950;2023-09-07T09:23:47;13.93;;;6.90;;
579;SDS011;276;48.392;9.950;2023-09-07T09:26:17;9.33;;;8.43;;
579;SDS011;276;48.392;9.950;2023-09-07T09:28:46;7.77;;;7.17;;
579;SDS011;276;48.392;9.950;2023-09-07T09:31:17;8.03;;;7.43;;
579;SDS011;276;48.392;9.950;2023-09-07T09:33:42;7.97;;;7.27;;
579;SDS011;276;48.392;9.950;2023-09-07T09:36:18;7.77;;;7.27;;
579;SDS011;276;48.392;9.950;2023-09-07T09:38:47;7.77;;;7.17;;
579;SDS011;276;48.392;9.950;2023-09-07T09:41:19;7.83;;;7.03;;
579;SDS011;276;48.392;9.950;2023-09-07T09:43:46;8.20;;;7.60;;
579;SDS011;276;48.392;9.950;2023-09-07T09:46:16;8.10;;;7.50;;
579;SDS011;276;48.392;9.950;2023-09-07T09:48:48;8.53;;;7.87;;
579;SDS011;276;48.392;9.950;2023-09-07T09:51:16;7.27;;;6.77;;
579;SDS011;276;48.392;9.950;2023-09-07T09:53:43;8.73;;;7.87;;
579;SDS011;276;48.392;9.950;2023-09-07T09:56:10;8.97;;;8.37;;
579;SDS011;276;48.392;9.950;2023-09-07T09:58:36;7.47;;;6.97;;
579;SDS011;276;48.392;9.950;2023-09-07T10:01:04;8.47;;;7.87;;
579;SDS011;276;48.392;9.950;2023-09-07T10:03:33;8.87;;;8.17;;
579;SDS011;276;48.392;9.950;2023-09-07T10:06:10;8.03;;;7.43;;
579;SDS011;276;48.392;9.950;2023-09-07T10:08:39;9.77;;;9.07;;
579;SDS011;276;48.392;9.950;2023-09-07T10:11:08;9.40;;;8.70;;
579;SDS011;276;48.392;9.950;2023-09-07T10:13:36;8.47;;;7.77;;
579;SDS011;276;48.392;9.950;2023-09-07T10:16:08;7.17;;;6.77;;
579;SDS011;276;48.392;9.950;2023-09-07T10:18:37;8.20;;;7.60;;
579;SDS011;276;48.392;9.950;2023-09-07T10:21:06;9.30;;;8.50;;
579;SDS011;276;48.392;9.950;2023-09-07T10:23:35;7.70;;;6.90;;
579;SDS011;276;48.392;9.950;2023-09-07T10:26:03;6.80;;;6.30;;
579;SDS011;276;48.392;9.950;2023-09-07T10:28:32;6.30;;;5.90;;
579;SDS011;276;48.392;9.950;2023-09-07T10:30:59;8.50;;;7.83;;
579;SDS011;276;48.392;9.950;2023-09-07T10:33:31;7.80;;;7.17;;
579;SDS011;276;48.392;9.950;2023-09-07T10:35:58;8.87;;;7.67;;
579;SDS011;276;48.392;9.950;2023-09-07T10:38:23;7.20;;;6.60;;
579;SDS011;276;48.392;9.950;2023-09-07T10:40:54;8.43;;;7.83;;
579;SDS011;276;48.392;9.950;2023-09-07T10:43:30;7.50;;;7.00;;
579;SDS011;276;48.392;9.950;2023-09-07T10:45:57;8.10;;;7.50;;
579;SDS011;276;48.392;9.950;2023-09-07T10:48:28;7.10;;;6.60;;
579;SDS011;276;48.392;9.950;2023-09-07T10:50:57;7.23;;;6.80;;
579;SDS011;276;48.392;9.950;2023-09-07T10:53:26;7.90;;;7.30;;
579;SDS011;276;48.392;9.950;2023-09-07T10:55:54;6.70;;;6.20;;
579;SDS011;276;48.392;9.950;2023-09-07T10:58:29;7.07;;;6.47;;
579;SDS011;276;48.392;9.950;2023-09-07T11:01:01;5.90;;;5.50;;
579;SDS011;276;48.392;9.950;2023-09-07T11:03:30;8.10;;;7.43;;
579;SDS011;276;48.392;9.950;2023-09-07T11:06:00;7.70;;;7.20;;
579;SDS011;276;48.392;9.950;2023-09-07T11:08:38;8.93;;;7.10;;
579;SDS011;276;48.392;9.950;2023-09-07T11:11:07;7.93;;;7.23;;
579;SDS011;276;48.392;9.950;2023-09-07T11:13:33;9.03;;;8.33;;
579;SDS011;276;48.392;9.950;2023-09-07T11:16:01;6.67;;;6.17;;
579;SDS011;276;48.392;9.950;2023-09-07T11:18:27;6.60;;;6.20;;
579;SDS011;276;48.392;9.950;2023-09-07T11:20:55;8.53;;;7.03;;
579;SDS011;276;48.392;9.950;2023-09-07T11:23:21;6.30;;;5.80;;
579;SDS011;276;48.392;9.950;2023-09-07T11:25:50;6.37;;;5.97;;
579;SDS011;276;48.392;9.950;2023-09-07T11:28:18;7.07;;;6.57;;
579;SDS011;276;48.392;9.950;2023-09-07T11:30:54;9.30;;;8.60;;
579;SDS011;276;48.392;9.950;2023-09-07T11:33:23;8.00;;;7.40;;
579;SDS011;276;48.392;9.950;2023-09-07T11:35:49;7.23;;;6.63;;
579;SDS011;276;48.392;9.950;2023-09-07T11:38:15;7.27;;;6.77;;
579;SDS011;276;48.392;9.950;2023-09-07T11:40:42;6.63;;;6.13;;
579;SDS011;276;48.392;9.950;2023-09-07T11:43:14;7.90;;;7.20;;
579;SDS011;276;48.392;9.950;2023-09-07T11:45:42;8.17;;;7.43;;
579;SDS011;276;48.392;9.950;2023-09-07T11:48:08;6.33;;;5.93;;
579;SDS011;276;48.392;9.950;2023-09-07T11:50:39;7.70;;;7.20;;
579;SDS011;276;48.392;9.950;2023-09-07T11:53:08;7.10;;;6.60;;
579;SDS011;276;48.392;9.950;2023-09-07T11:55:34;6.97;;;6.47;;
579;SDS011;276;48.392;9.950;2023-09-07T11:58:05;6.23;;;5.83;;
579;SDS011;276;48.392;9.950;2023-09-07T12:00:34;7.33;;;6.90;;
579;SDS011;276;48.392;9.950;2023-09-07T12:02:59;6.50;;;6.00;;
579;SDS011;276;48.392;9.950;2023-09-07T12:05:25;7.10;;;6.60;;
579;SDS011;276;48.392;9.950;2023-09-07T12:07:53;8.20;;;7.60;;
579;SDS011;276;48.392;9.950;2023-09-07T12:10:21;7.27;;;6.70;;
579;SDS011;276;48.392;9.950;2023-09-07T12:12:47;6.90;;;6.43;;
579;SDS011;276;48.392;9.950;2023-09-07T12:15:12;8.37;;;7.77;;
579;SDS011;276;48.392;9.950;2023-09-07T12:17:38;7.70;;;7.07;;
579;SDS011;276;48.392;9.950;2023-09-07T12:20:04;7.40;;;6.70;;
579;SDS011;276;48.392;9.950;2023-09-07T12:22:34;7.83;;;7.23;;
579;SDS011;276;48.392;9.950;2023-09-07T12:25:05;7.60;;;7.10;;
579;SDS011;276;48.392;9.950;2023-09-07T12:27:32;7.53;;;7.03;;
579;SDS011;276;48.392;9.950;2023-09-07T12:30:00;6.90;;;6.50;;
579;SDS011;276;48.392;9.950;2023-09-07T12:32:27;7.67;;;7.13;;
579;SDS011;276;48.392;9.950;2023-09-07T12:34:56;6.80;;;6.23;;
579;SDS011;276;48.392;9.950;2023-09-07T12:37:21;7.20;;;6.70;;
579;SDS011;276;48.392;9.950;2023-09-07T12:39:48;6.00;;;5.60;;
579;SDS011;276;48.392;9.950;2023-09-07T12:42:14;6.70;;;6.20;;
579;SDS011;276;48.392;9.950;2023-09-07T12:44:43;7.30;;;6.70;;
579;SDS011;276;48.392;9.950;2023-09-07T12:47:09;11.70;;;7.00;;
579;SDS011;276;48.392;9.950;2023-09-07T12:49:34;7.13;;;6.53;;
579;SDS011;276;48.392;9.950;2023-09-07T12:52:02;7.20;;;6.70;;
579;SDS011;276;48.392;9.950;2023-09-07T12:54:33;6.40;;;6.00;;
579;SDS011;276;48.392;9.950;2023-09-07T12:57:02;7.00;;;6.50;;
579;SDS011;276;48.392;9.950;2023-09-07T12:59:29;7.17;;;6.63;;
579;SDS011;276;48.392;9.950;2023-09-07T13:01:54;7.73;;;7.13;;
579;SDS011;276;48.392;9.950;2023-09-07T13:04:23;7.00;;;6.40;;
579;SDS011;276;48.392;9.950;2023-09-07T13:06:48;6.77;;;6.37;;
579;SDS011;276;48.392;9.950;2023-09-07T13:09:14;7.77;;;7.17;;
579;SDS011;276;48.392;9.950;2023-09-07T13:11:42;7.00;;;6.43;;
579;SDS011;276;48.392;9.950;2023-09-07T13:14:08;7.40;;;6.80;;
579;SDS011;276;48.392;9.950;2023-09-07T13:16:33;6.50;;;6.10;;
579;SDS011;276;48.392;9.950;2023-09-07T13:18:59;7.80;;;7.13;;
579;SDS011;276;48.392;9.950;2023-09-07T13:21:25;7.30;;;6.70;;
579;SDS011;276;48.392;9.950;2023-09-07T13:23:50;6.77;;;6.27;;
579;SDS011;276;48.392;9.950;2023-09-07T13:26:18;7.47;;;6.87;;
579;SDS011;276;48.392;9.950;2023-09-07T13:28:46;7.77;;;7.17;;
579;SDS011;276;48.392;9.950;2023-09-07T13:31:14;6.77;;;6.23;;
579;SDS011;276;48.392;9.950;2023-09-07T13:33:40;6.40;;;5.90;;
579;SDS011;276;48.392;9.950;2023-09-07T13:36:05;7.00;;;6.50;;
579;SDS011;276;48.392;9.950;2023-09-07T13:38:33;7.10;;;6.70;;
579;SDS011;276;48.392;9.950;2023-09-07T13:40:59;7.10;;;6.53;;
579;SDS011;276;48.392;9.950;2023-09-07T13:43:24;7.50;;;7.00;;
579;SDS011;276;48.392;9.950;2023-09-07T13:45:50;6.73;;;6.27;;
579;SDS011;276;48.392;9.950;2023-09-07T13:48:18;7.30;;;6.73;;
579;SDS011;276;48.392;9.950;2023-09-07T13:50:48;7.17;;;6.67;;
579;SDS011;276;48.392;9.950;2023-09-07T13:53:14;6.50;;;6.10;;
579;SDS011;276;48.392;9.950;2023-09-07T13:55:39;7.23;;;6.77;;
579;SDS011;276;48.392;9.950;2023-09-07T13:58:07;6.40;;;5.90;;
579;SDS011;276;48.392;9.950;2023-09-07T14:00:32;6.03;;;5.47;;
579;SDS011;276;48.392;9.950;2023-09-07T14:03:00;7.23;;;6.63;;
579;SDS011;276;48.392;9.950;2023-09-07T14:05:28;6.23;;;5.83;;
579;SDS011;276;48.392;9.950;2023-09-07T14:07:54;6.80;;;6.37;;
579;SDS011;276;48.392;9.950;2023-09-07T14:10:22;7.10;;;6.50;;
579;SDS011;276;48.392;9.950;2023-09-07T14:12:48;6.67;;;6.17;;
579;SDS011;276;48.392;9.950;2023-09-07T14:15:15;7.70;;;7.00;;
579;SDS011;276;48.392;9.950;2023-09-07T14:17:41;7.03;;;5.80;;
579;SDS011;276;48.392;9.950;2023-09-07T14:20:08;6.70;;;6.10;;
579;SDS011;276;48.392;9.950;2023-09-07T14:22:36;9.67;;;7.00;;
579;SDS011;276;48.392;9.950;2023-09-07T14:25:01;7.00;;;6.30;;
579;SDS011;276;48.392;9.950;2023-09-07T14:27:32;6.43;;;5.93;;
579;SDS011;276;48.392;9.950;2023-09-07T14:30:03;6.47;;;5.97;;
579;SDS011;276;48.392;9.950;2023-09-07T14:32:28;6.53;;;6.03;;
579;SDS011;276;48.392;9.950;2023-09-07T14:34:54;6.37;;;5.97;;
579;SDS011;276;48.392;9.950;2023-09-07T14:37:20;6.87;;;6.37;;
579;SDS011;276;48.392;9.950;2023-09-07T14:39:45;5.73;;;5.23;;
579;SDS011;276;48.392;9.950;2023-09-07T14:42:14;6.13;;;5.73;;
579;SDS011;276;48.392;9.950;2023-09-07T14:44:44;6.20;;;5.70;;
579;SDS011;276;48.392;9.950;2023-09-07T14:47:10;6.03;;;5.53;;
579;SDS011;276;48.392;9.950;2023-09-07T14:49:36;6.43;;;5.83;;
579;SDS011;276;48.392;9.950;2023-09-07T14:52:02;7.23;;;5.30;;
579;SDS011;276;48.392;9.950;2023-09-07T14:54:28;6.03;;;5.63;;
579;SDS011;276;48.392;9.950;2023-09-07T14:56:54;6.57;;;5.97;;
579;SDS011;276;48.392;9.950;2023-09-07T14:59:19;6.30;;;5.90;;
579;SDS011;276;48.392;9.950;2023-09-07T15:01:45;6.10;;;5.70;;
579;SDS011;276;48.392;9.950;2023-09-07T15:04:10;6.53;;;5.87;;
579;SDS011;276;48.392;9.950;2023-09-07T15:06:38;6.60;;;6.00;;
579;SDS011;276;48.392;9.950;2023-09-07T15:09:04;6.30;;;5.80;;
579;SDS011;276;48.392;9.950;2023-09-07T15:11:30;6.30;;;5.80;;
579;SDS011;276;48.392;9.950;2023-09-07T15:13:56;6.10;;;5.67;;
579;SDS011;276;48.392;9.950;2023-09-07T15:16:22;5.07;;;4.70;;
579;SDS011;276;48.392;9.950;2023-09-07T15:18:53;6.83;;;4.97;;
579;SDS011;276;48.392;9.950;2023-09-07T15:21:19;6.53;;;5.77;;
579;SDS011;276;48.392;9.950;2023-09-07T15:23:45;6.87;;;6.30;;
579;SDS011;276;48.392;9.950;2023-09-07T15:26:13;6.80;;;6.13;;
579;SDS011;276;48.392;9.950;2023-09-07T15:28:44;6.13;;;5.63;;
579;SDS011;276;48.392;9.950;2023-09-07T15:31:12;6.00;;;5.40;;
579;SDS011;276;48.392;9.950;2023-09-07T15:33:37;5.70;;;5.30;;
579;SDS011;276;48.392;9.950;2023-09-07T15:36:03;5.67;;;5.27;;
579;SDS011;276;48.392;9.950;2023-09-07T15:38:29;5.10;;;4.80;;
579;SDS011;276;48.392;9.950;2023-09-07T15:40:56;5.50;;;5.10;;
579;SDS011;276;48.392;9.950;2023-09-07T15:43:23;8.80;;;5.30;;
579;SDS011;276;48.392;9.950;2023-09-07T15:45:52;5.97;;;5.43;;
579;SDS011;276;48.392;9.950;2023-09-07T15:48:17;6.30;;;5.83;;